createdAt,value
2022-09-09T00:00:41.499Z,100668.63
2022-09-09T00:03:28.493Z,100668.38
2022-09-09T00:06:22.034Z,100658.22
2022-09-09T00:09:10.002Z,100651.41
2022-09-09T00:11:37.743Z,100644.81
2022-09-09T00:14:14.292Z,100653.31
2022-09-09T00:16:48.351Z,100654.41
2022-09-09T00:19:23.998Z,100663.78
2022-09-09T00:22:15.078Z,100666.25
2022-09-09T00:24:50.191Z,100660.47
2022-09-09T00:27:39.767Z,100661.84
2022-09-09T00:30:12.378Z,100661.84
2022-09-09T00:32:39.220Z,100659.38
2022-09-09T00:35:19.103Z,100654.19
2022-09-09T00:37:50.004Z,100665.78
2022-09-09T00:40:27.906Z,100657.78
2022-09-09T00:43:28.407Z,100651.19
2022-09-09T00:46:26.044Z,100653.41
2022-09-09T00:48:55.439Z,100654.50
2022-09-09T00:51:48.875Z,100652.28
2022-09-09T00:54:18.363Z,100656.41
2022-09-09T00:57:14.042Z,100660.28
2022-09-09T00:59:53.716Z,100653.09
2022-09-09T01:02:23.436Z,100651.41
2022-09-09T01:04:50.245Z,100641.78
2022-09-09T01:07:20.486Z,100650.00
2022-09-09T01:09:59.084Z,100647.00
2022-09-09T01:12:47.787Z,100654.94
2022-09-09T01:15:30.176Z,100644.53
2022-09-09T01:18:02.642Z,100645.78
2022-09-09T01:20:52.182Z,100652.47
2022-09-09T01:23:40.071Z,100656.75
2022-09-09T01:26:09.679Z,100651.53
2022-09-09T01:28:38.006Z,100666.53
2022-09-09T01:31:07.155Z,100662.88
2022-09-09T01:33:33.749Z,100650.31
2022-09-09T01:36:19.182Z,100657.94
2022-09-09T01:38:45.739Z,100651.38
2022-09-09T01:41:12.317Z,100647.53
2022-09-09T01:43:39.167Z,100645.88
2022-09-09T01:46:06.189Z,100641.31
2022-09-09T01:48:33.650Z,100638.63
2022-09-09T01:51:00.271Z,100644.78
2022-09-09T01:53:26.899Z,100649.94
2022-09-09T01:56:00.924Z,100650.53
2022-09-09T01:58:53.206Z,100654.78
2022-09-09T02:01:37.560Z,100644.25
2022-09-09T02:04:32.163Z,100644.91
2022-09-09T02:06:58.767Z,100649.03
2022-09-09T02:09:27.262Z,100651.97
2022-09-09T02:12:02.494Z,100655.78
2022-09-09T02:14:35.640Z,100656.66
2022-09-09T02:17:11.704Z,100650.75
2022-09-09T02:19:47.083Z,100647.47
2022-09-09T02:22:14.408Z,100647.84
2022-09-09T02:24:41.479Z,100648.06
2022-09-09T02:27:10.422Z,100646.41
2022-09-09T02:29:42.688Z,100645.31
2022-09-09T02:32:18.847Z,100647.00
2022-09-09T02:34:51.879Z,100639.38
2022-09-09T02:37:21.299Z,100638.75
2022-09-09T02:39:48.707Z,100643.41
2022-09-09T02:42:15.995Z,100634.59
2022-09-09T02:44:43.004Z,100632.06
2022-09-09T02:48:00.830Z,100631.81
2022-09-09T02:50:34.005Z,100628.91
2022-09-09T02:53:17.145Z,100624.81
2022-09-09T02:56:05.186Z,100633.78
2022-09-09T02:58:31.900Z,100632.50
2022-09-09T03:00:59.359Z,100635.25
2022-09-09T03:03:26.258Z,100638.69
2022-09-09T03:05:52.845Z,100628.63
2022-09-09T03:08:19.432Z,100639.53
2022-09-09T03:10:46.028Z,100632.22
2022-09-09T03:13:14.084Z,100634.91
2022-09-09T03:15:40.724Z,100627.78
2022-09-09T03:18:07.375Z,100640.19
2022-09-09T03:20:34.303Z,100636.16
2022-09-09T03:23:01.485Z,100642.69
2022-09-09T03:25:29.646Z,100644.38
2022-09-09T03:27:56.743Z,100633.94
2022-09-09T03:30:25.062Z,100637.41
2022-09-09T03:32:51.906Z,100643.59
2022-09-09T03:35:18.759Z,100642.00
2022-09-09T03:37:45.408Z,100639.84
2022-09-09T03:40:12.728Z,100650.91
2022-09-09T03:42:40.147Z,100638.63
2022-09-09T03:45:11.667Z,100637.50
2022-09-09T03:47:38.295Z,100639.09
2022-09-09T03:50:09.678Z,100637.38
2022-09-09T03:52:37.849Z,100640.06
2022-09-09T03:55:05.679Z,100641.06
2022-09-09T03:57:33.010Z,100643.25
2022-09-09T04:00:02.055Z,100641.47
2022-09-09T04:02:28.695Z,100640.06
2022-09-09T04:04:55.316Z,100639.13
2022-09-09T04:07:22.530Z,100647.59
2022-09-09T04:09:49.098Z,100641.91
2022-09-09T04:12:15.787Z,100650.88
2022-09-09T04:14:42.466Z,100653.56
2022-09-09T04:17:08.990Z,100655.22
2022-09-09T04:19:35.538Z,100663.47
2022-09-09T04:22:02.127Z,100654.31
2022-09-09T04:24:30.167Z,100661.41
2022-09-09T04:26:56.807Z,100655.78
2022-09-09T04:29:23.353Z,100649.22
2022-09-09T04:31:50.006Z,100659.16
2022-09-09T04:34:16.629Z,100659.53
2022-09-09T04:36:43.179Z,100661.69
2022-09-09T04:39:09.860Z,100660.53
2022-09-09T04:41:36.456Z,100663.59
2022-09-09T04:44:04.029Z,100662.59
2022-09-09T04:46:30.897Z,100663.19
2022-09-09T04:48:57.391Z,100663.09
2022-09-09T04:51:24.073Z,100671.34
2022-09-09T04:53:51.814Z,100676.22
2022-09-09T04:56:19.377Z,100671.06
2022-09-09T04:58:46.619Z,100677.88
2022-09-09T05:01:19.065Z,100681.16
2022-09-09T05:03:46.490Z,100680.72
2022-09-09T05:06:18.519Z,100675.69
2022-09-09T05:08:45.980Z,100678.16
2022-09-09T05:11:21.775Z,100679.56
2022-09-09T05:13:48.341Z,100686.16
2022-09-09T05:16:15.353Z,100677.78
2022-09-09T05:18:43.911Z,100684.88
2022-09-09T05:21:15.264Z,100686.69
2022-09-09T05:23:41.972Z,100694.22
2022-09-09T05:26:17.367Z,100685.22
2022-09-09T05:28:45.095Z,100689.63
2022-09-09T05:31:13.891Z,100686.19
2022-09-09T05:33:44.054Z,100694.06
2022-09-09T05:36:16.099Z,100690.81
2022-09-09T05:38:43.260Z,100699.59
2022-09-09T05:41:12.509Z,100705.13
2022-09-09T05:43:40.055Z,100698.56
2022-09-09T05:46:09.165Z,100709.63
2022-09-09T05:48:38.543Z,100709.75
2022-09-09T05:51:07.930Z,100707.41
2022-09-09T05:53:37.914Z,100706.06
2022-09-09T05:56:06.824Z,100716.91
2022-09-09T05:58:35.030Z,100715.03
2022-09-09T06:01:07.819Z,100724.69
2022-09-09T06:03:39.143Z,100720.13
2022-09-09T06:06:07.829Z,100724.00
2022-09-09T06:08:38.312Z,100723.44
2022-09-09T06:11:10.892Z,100731.94
2022-09-09T06:13:40.869Z,100733.03
2022-09-09T06:16:13.977Z,100739.91
2022-09-09T06:18:41.962Z,100730.09
2022-09-09T06:21:18.501Z,100730.69
2022-09-09T06:23:45.616Z,100732.91
2022-09-09T06:26:14.641Z,100731.84
2022-09-09T06:28:41.262Z,100729.41
2022-09-09T06:31:10.318Z,100730.00
2022-09-09T06:33:45.518Z,100736.06
2022-09-09T06:36:14.923Z,100725.41
2022-09-09T06:38:43.064Z,100726.50
2022-09-09T06:41:11.262Z,100734.78
2022-09-09T06:43:37.859Z,100740.84
2022-09-09T06:46:07.062Z,100735.94
2022-09-09T06:48:33.864Z,100740.34
2022-09-09T06:51:15.806Z,100734.06
2022-09-09T06:53:44.214Z,100744.28
2022-09-09T06:56:12.792Z,100746.47
2022-09-09T06:58:46.022Z,100740.44
2022-09-09T07:01:18.340Z,100737.97
2022-09-09T07:03:49.316Z,100739.94
2022-09-09T07:06:18.882Z,100746.47
2022-09-09T07:08:56.208Z,100741.06
2022-09-09T07:11:26.834Z,100749.91
2022-09-09T07:13:53.990Z,100746.69
2022-09-09T07:16:25.826Z,100740.09
2022-09-09T07:18:53.630Z,100745.63
2022-09-09T07:21:22.655Z,100749.50
2022-09-09T07:23:49.749Z,100756.13
2022-09-09T07:26:20.445Z,100747.06
2022-09-09T07:28:47.169Z,100752.56
2022-09-09T07:31:21.852Z,100751.50
2022-09-09T07:33:49.452Z,100754.47
2022-09-09T07:36:22.988Z,100758.06
2022-09-09T07:38:52.888Z,100760.81
2022-09-09T07:41:26.299Z,100752.84
2022-09-09T07:43:54.882Z,100762.19
2022-09-09T07:46:24.324Z,100753.38
2022-09-09T07:48:53.467Z,100758.88
2022-09-09T07:51:28.477Z,100766.03
2022-09-09T07:53:58.752Z,100770.69
2022-09-09T07:56:26.787Z,100769.63
2022-09-09T07:58:55.402Z,100772.38
2022-09-09T08:01:28.459Z,100775.69
2022-09-09T08:04:02.152Z,100776.53
2022-09-09T08:06:30.531Z,100769.34
2022-09-09T08:08:57.204Z,100774.59
2022-09-09T08:11:26.263Z,100774.28
2022-09-09T08:13:55.417Z,100773.16
2022-09-09T08:16:26.418Z,100787.50
2022-09-09T08:18:55.054Z,100789.63
2022-09-09T08:21:24.404Z,100787.41
2022-09-09T08:23:57.240Z,100790.09
2022-09-09T08:26:27.736Z,100796.16
2022-09-09T08:28:57.591Z,100790.13
2022-09-09T08:31:30.272Z,100796.34
2022-09-09T08:33:58.130Z,100788.88
2022-09-09T08:36:27.340Z,100797.44
2022-09-09T08:38:56.316Z,100791.63
2022-09-09T08:41:31.895Z,100801.47
2022-09-09T08:44:12.385Z,100800.38
2022-09-09T08:46:51.219Z,100795.38
2022-09-09T08:49:50.895Z,100797.38
2022-09-09T08:52:22.881Z,100806.13
2022-09-09T08:54:52.750Z,100799.22
2022-09-09T08:57:27.795Z,100803.94
2022-09-09T08:59:57.658Z,100800.72
2022-09-09T09:02:34.044Z,100805.63
2022-09-09T09:05:13.623Z,100805.41
2022-09-09T09:07:55.126Z,100814.84
2022-09-09T09:10:48.063Z,100814.91
2022-09-09T09:13:25.228Z,100814.28
2022-09-09T09:15:57.973Z,100813.50
2022-09-09T09:18:25.092Z,100806.88
2022-09-09T09:21:06.436Z,100815.94
2022-09-09T09:23:43.482Z,100808.00
2022-09-09T09:26:13.797Z,100806.34
2022-09-09T09:28:41.205Z,100812.34
2022-09-09T09:31:10.878Z,100802.41
2022-09-09T09:33:49.234Z,100804.31
2022-09-09T09:36:16.778Z,100813.03
2022-09-09T09:41:46.644Z,100800.50
2022-09-09T09:44:27.116Z,100810.06
2022-09-09T09:47:05.709Z,100808.84
2022-09-09T09:49:33.766Z,100809.81
2022-09-09T09:52:11.854Z,100816.34
2022-09-09T09:54:40.450Z,100807.31
2022-09-09T09:57:15.979Z,100823.69
2022-09-09T09:59:43.784Z,100824.22
2022-09-09T10:02:26.659Z,100825.31
2022-09-09T10:05:05.800Z,100822.81
2022-09-09T10:07:33.525Z,100826.88
2022-09-09T10:10:00.324Z,100824.97
2022-09-09T10:12:36.038Z,100823.13
2022-09-09T10:15:20.649Z,100819.00
2022-09-09T10:17:58.497Z,100831.06
2022-09-09T10:20:36.041Z,100823.09
2022-09-09T10:23:35.137Z,100822.03
2022-09-09T10:26:23.558Z,100818.88
2022-09-09T10:29:05.039Z,100814.63
2022-09-09T10:31:43.842Z,100817.47
2022-09-09T10:35:18.278Z,100805.44
2022-09-09T10:37:44.780Z,100819.63
2022-09-09T10:40:31.580Z,100815.34
2022-09-09T10:43:13.434Z,100812.66
2022-09-09T10:45:49.478Z,100812.56
2022-09-09T10:48:31.841Z,100806.16
2022-09-09T10:51:05.284Z,100808.75
2022-09-09T10:53:35.081Z,100816.72
2022-09-09T10:56:08.625Z,100813.25
2022-09-09T10:59:13.365Z,100811.53
2022-09-09T11:01:51.139Z,100818.34
2022-09-09T11:04:23.168Z,100815.75
2022-09-09T11:06:54.941Z,100808.59
2022-09-09T11:09:31.698Z,100809.97
2022-09-09T11:12:03.362Z,100805.50
2022-09-09T11:14:58.416Z,100810.56
2022-09-09T11:17:45.539Z,100810.19
2022-09-09T11:20:14.418Z,100799.22
2022-09-09T11:22:59.188Z,100808.66
2022-09-09T11:25:38.217Z,100811.13
2022-09-09T11:28:42.441Z,100809.53
2022-09-09T11:31:30.643Z,100815.75
2022-09-09T11:34:15.493Z,100815.06
2022-09-09T11:36:57.256Z,100804.28
2022-09-09T11:40:02.240Z,100812.47
2022-09-09T11:42:28.948Z,100811.78
2022-09-09T11:44:56.124Z,100814.63
2022-09-09T11:47:31.077Z,100815.81
2022-09-09T11:50:15.954Z,100815.38
2022-09-09T11:52:48.451Z,100819.91
2022-09-09T11:55:35.794Z,100824.81
2022-09-09T11:58:03.696Z,100822.47
2022-09-09T12:00:46.115Z,100817.25
2022-09-09T12:03:45.502Z,100822.16
2022-09-09T12:06:26.070Z,100815.28
2022-09-09T12:08:59.422Z,100806.69
2022-09-09T12:11:28.241Z,100806.72
2022-09-09T12:13:57.330Z,100799.22
2022-09-09T12:16:39.646Z,100798.13
2022-09-09T12:19:28.800Z,100803.66
2022-09-09T12:22:17.904Z,100802.22
2022-09-09T12:24:53.982Z,100803.16
2022-09-09T12:27:32.769Z,100798.44
2022-09-09T12:30:05.791Z,100799.22
2022-09-09T12:32:32.369Z,100797.19
2022-09-09T12:35:23.259Z,100802.63
2022-09-09T12:38:01.388Z,100800.94
2022-09-09T12:40:30.408Z,100794.78
2022-09-09T12:42:57.080Z,100809.72
2022-09-09T12:45:26.969Z,100802.16
2022-09-09T12:48:09.543Z,100802.84
2022-09-09T12:50:47.069Z,100799.28
2022-09-09T12:53:27.457Z,100806.25
2022-09-09T12:55:58.834Z,100807.75
2022-09-09T12:58:26.465Z,100800.69
2022-09-09T13:00:57.422Z,100809.03
2022-09-09T13:03:24.779Z,100801.81
2022-09-09T13:05:52.496Z,100807.84
2022-09-09T13:08:22.377Z,100795.72
2022-09-09T13:11:03.064Z,100804.53
2022-09-09T13:13:35.921Z,100801.50
2022-09-09T13:16:05.640Z,100811.28
2022-09-09T13:18:40.421Z,100807.81
2022-09-09T13:21:07.762Z,100809.63
2022-09-09T13:23:37.421Z,100807.63
2022-09-09T13:26:08.728Z,100809.06
2022-09-09T13:28:36.209Z,100809.06
2022-09-09T13:31:06.063Z,100809.63
2022-09-09T13:33:38.421Z,100807.25
2022-09-09T13:36:08.687Z,100812.19
2022-09-09T13:38:39.458Z,100808.22
2022-09-09T13:41:09.095Z,100806.19
2022-09-09T13:43:45.217Z,100808.91
2022-09-09T13:46:27.430Z,100802.41
2022-09-09T13:49:02.723Z,100800.19
2022-09-09T13:51:31.952Z,100801.88
2022-09-09T13:53:58.791Z,100807.94
2022-09-09T13:56:25.300Z,100808.03
2022-09-09T13:58:51.887Z,100817.63
2022-09-09T14:01:18.520Z,100817.56
2022-09-09T14:03:45.119Z,100825.56
2022-09-09T14:06:12.304Z,100826.47
2022-09-09T14:08:39.570Z,100830.97
2022-09-09T14:11:06.104Z,100835.31
2022-09-09T14:13:33.428Z,100830.34
2022-09-09T14:16:00.010Z,100837.41
2022-09-09T14:18:26.641Z,100839.38
2022-09-09T14:20:53.159Z,100838.44
2022-09-09T14:23:19.912Z,100845.63
2022-09-09T14:25:47.538Z,100843.47
2022-09-09T14:28:15.409Z,100839.44
2022-09-09T14:30:45.357Z,100840.53
2022-09-09T14:33:14.147Z,100835.72
2022-09-09T14:35:42.095Z,100833.25
2022-09-09T14:38:09.961Z,100840.97
2022-09-09T14:40:37.911Z,100831.38
2022-09-09T14:43:05.754Z,100838.41
2022-09-09T14:45:32.887Z,100836.22
2022-09-09T14:48:00.502Z,100832.34
2022-09-09T14:50:27.682Z,100822.03
2022-09-09T14:52:54.201Z,100823.38
2022-09-09T14:55:20.890Z,100820.53
2022-09-09T14:57:47.646Z,100821.16
2022-09-09T15:00:14.480Z,100819.75
2022-09-09T15:02:41.238Z,100824.00
2022-09-09T15:05:08.214Z,100823.53
2022-09-09T15:07:35.132Z,100829.72
2022-09-09T15:10:01.728Z,100823.38
2022-09-09T15:12:29.387Z,100831.09
2022-09-09T15:14:55.994Z,100833.78
2022-09-09T15:17:22.832Z,100828.19
2022-09-09T15:19:51.094Z,100824.00
2022-09-09T15:22:17.731Z,100828.69
2022-09-09T15:24:44.665Z,100832.81
2022-09-09T15:27:11.265Z,100827.66
2022-09-09T15:29:39.279Z,100829.59
2022-09-09T15:32:05.904Z,100821.72
2022-09-09T15:34:32.586Z,100825.63
2022-09-09T15:37:00.960Z,100812.91
2022-09-09T15:39:27.824Z,100817.91
2022-09-09T15:41:54.984Z,100814.78
2022-09-09T15:44:21.570Z,100805.88
2022-09-09T15:46:54.603Z,100809.78
2022-09-09T15:49:28.293Z,100818.69
2022-09-09T15:51:58.335Z,100827.13
2022-09-09T15:54:26.515Z,100822.75
2022-09-09T15:56:59.109Z,100819.13
2022-09-09T15:59:28.919Z,100817.94
2022-09-09T16:01:56.279Z,100816.16
2022-09-09T16:04:25.556Z,100813.28
2022-09-09T16:06:52.776Z,100818.25
2022-09-09T16:09:20.004Z,100820.97
2022-09-09T16:11:47.914Z,100817.78
2022-09-09T16:14:16.722Z,100819.81
2022-09-09T16:16:43.705Z,100820.94
2022-09-09T16:19:13.602Z,100816.34
2022-09-09T16:21:47.553Z,100817.75
2022-09-09T16:24:17.943Z,100807.56
2022-09-09T16:26:46.337Z,100812.63
2022-09-09T16:29:15.349Z,100816.47
2022-09-09T16:31:42.786Z,100817.63
2022-09-09T16:34:10.178Z,100814.13
2022-09-09T16:36:39.948Z,100807.78
2022-09-09T16:39:10.230Z,100807.31
2022-09-09T16:41:37.934Z,100811.38
2022-09-09T16:44:07.938Z,100809.22
2022-09-09T16:46:37.808Z,100814.19
2022-09-09T16:49:06.342Z,100818.63
2022-09-09T16:51:41.810Z,100827.50
2022-09-09T16:54:09.907Z,100828.59
2022-09-09T16:56:40.595Z,100825.56
2022-09-09T16:59:10.179Z,100827.81
2022-09-09T17:01:38.916Z,100821.22
2022-09-09T17:04:09.924Z,100828.44
2022-09-09T17:06:41.397Z,100829.59
2022-09-09T17:09:10.817Z,100832.88
2022-09-09T17:11:41.121Z,100830.66
2022-09-09T17:14:10.387Z,100833.47
2022-09-09T17:16:40.489Z,100827.41
2022-09-09T17:19:09.315Z,100833.25
2022-09-09T17:21:45.550Z,100826.97
2022-09-09T17:24:22.869Z,100819.22
2022-09-09T17:26:49.606Z,100824.28
2022-09-09T17:29:16.965Z,100836.69
2022-09-09T17:31:43.565Z,100830.94
2022-09-09T17:34:10.658Z,100831.47
2022-09-09T17:36:38.188Z,100839.78
2022-09-09T17:39:05.933Z,100835.91
2022-09-09T17:41:38.464Z,100837.28
2022-09-09T17:46:41.652Z,100843.09
2022-09-09T17:49:14.539Z,100838.19
2022-09-09T17:51:42.703Z,100838.19
2022-09-09T17:54:13.267Z,100841.47
2022-09-09T17:56:40.740Z,100849.13
2022-09-09T17:59:08.946Z,100849.13
2022-09-09T18:01:39.573Z,100841.38
2022-09-09T18:04:08.974Z,100856.22
2022-09-09T18:06:39.362Z,100850.13
2022-09-09T18:09:09.340Z,100852.88
2022-09-09T18:11:42.564Z,100857.28
2022-09-09T18:14:12.191Z,100858.63
2022-09-09T18:16:39.730Z,100865.28
2022-09-09T18:19:09.610Z,100864.38
2022-09-09T18:21:36.543Z,100867.06
2022-09-09T18:24:05.915Z,100872.53
2022-09-09T18:26:33.833Z,100862.59
2022-09-09T18:29:03.758Z,100861.16
2022-09-09T18:31:31.051Z,100869.66
2022-09-09T18:34:00.467Z,100869.09
2022-09-09T18:36:29.829Z,100867.06
2022-09-09T18:38:59.354Z,100872.34
2022-09-09T18:41:28.727Z,100860.00
2022-09-09T18:43:58.483Z,100869.56
2022-09-09T18:46:27.607Z,100870.66
2022-09-09T18:48:56.468Z,100865.31
2022-09-09T18:51:26.934Z,100870.28
2022-09-09T18:53:56.885Z,100881.72
2022-09-09T18:56:23.769Z,100869.69
2022-09-09T18:59:01.954Z,100877.88
2022-09-09T19:01:29.750Z,100882.00
2022-09-09T19:03:57.187Z,100883.06
2022-09-09T19:06:27.516Z,100882.13
2022-09-09T19:09:03.520Z,100882.59
2022-09-09T19:11:33.002Z,100871.03
2022-09-09T19:14:02.761Z,100878.69
2022-09-09T19:16:32.479Z,100883.41
2022-09-09T19:19:02.191Z,100872.97
2022-09-09T19:21:31.816Z,100875.94
2022-09-09T19:24:02.020Z,100875.28
2022-09-09T19:26:32.467Z,100881.41
2022-09-09T19:29:00.568Z,100880.28
2022-09-09T19:31:31.111Z,100869.53
2022-09-09T19:33:58.130Z,100880.88
2022-09-09T19:36:29.728Z,100878.06
2022-09-09T19:38:56.673Z,100884.09
2022-09-09T19:41:25.720Z,100893.47
2022-09-09T19:43:57.395Z,100905.03
2022-09-09T19:46:24.072Z,100900.41
2022-09-09T19:48:50.792Z,100888.44
2022-09-09T19:51:20.372Z,100895.31
2022-09-09T19:53:49.832Z,100901.34
2022-09-09T19:56:18.408Z,100904.59
2022-09-09T19:58:47.280Z,100902.31
2022-09-09T20:01:17.114Z,100907.63
2022-09-09T20:03:46.485Z,100895.81
2022-09-09T20:06:15.678Z,100896.94
2022-09-09T20:08:46.109Z,100899.41
2022-09-09T20:11:14.432Z,100902.81
2022-09-09T20:13:42.056Z,100908.16
2022-09-09T20:16:23.926Z,100918.31
2022-09-09T20:18:52.709Z,100923.50
2022-09-09T20:21:22.514Z,100925.97
2022-09-09T20:23:51.199Z,100925.41
2022-09-09T20:26:25.254Z,100921.84
2022-09-09T20:28:54.388Z,100920.44
2022-09-09T20:31:26.619Z,100925.16
2022-09-09T20:33:55.106Z,100924.25
2022-09-09T20:36:33.931Z,100922.06
2022-09-09T20:39:04.215Z,100929.81
2022-09-09T20:41:33.179Z,100922.16
2022-09-09T20:44:04.597Z,100924.44
2022-09-09T20:46:35.245Z,100924.13
2022-09-09T20:49:03.990Z,100923.28
2022-09-09T20:51:33.241Z,100920.19
2022-09-09T20:54:03.582Z,100919.69
2022-09-09T20:56:37.635Z,100920.22
2022-09-09T20:59:06.889Z,100926.53
2022-09-09T21:01:34.217Z,100934.47
2022-09-09T21:04:00.794Z,100938.41
2022-09-09T21:06:27.475Z,100939.25
2022-09-09T21:08:54.519Z,100940.06
2022-09-09T21:11:21.432Z,100945.31
2022-09-09T21:13:48.437Z,100936.78
2022-09-09T21:16:19.567Z,100932.50
2022-09-09T21:18:46.211Z,100938.63
2022-09-09T21:21:13.588Z,100944.41
2022-09-09T21:23:40.153Z,100938.63
2022-09-09T21:26:07.674Z,100942.41
2022-09-09T21:28:36.257Z,100928.38
2022-09-09T21:31:03.938Z,100930.69
2022-09-09T21:33:30.785Z,100936.69
2022-09-09T21:36:03.201Z,100927.69
2022-09-09T21:38:29.955Z,100925.94
2022-09-09T21:40:56.758Z,100925.63
2022-09-09T21:43:26.240Z,100920.34
2022-09-09T21:45:53.975Z,100928.31
2022-09-09T21:48:20.681Z,100920.72
2022-09-09T21:50:48.147Z,100917.13
2022-09-09T21:53:19.070Z,100916.88
2022-09-09T21:55:47.741Z,100910.25
2022-09-09T21:58:16.262Z,100915.59
2022-09-09T22:00:47.698Z,100905.13
2022-09-09T22:03:16.270Z,100909.25
2022-09-09T22:05:44.349Z,100902.97
2022-09-09T22:08:12.921Z,100899.94
2022-09-09T22:10:42.033Z,100898.59
2022-09-09T22:13:08.883Z,100900.00
2022-09-09T22:15:36.412Z,100895.06
2022-09-09T22:18:04.350Z,100889.38
2022-09-09T22:20:39.634Z,100892.66
2022-09-09T22:23:06.350Z,100885.31
2022-09-09T22:25:35.188Z,100889.13
2022-09-09T22:28:03.142Z,100897.31
2022-09-09T22:30:29.760Z,100893.47
2022-09-09T22:32:57.330Z,100890.66
2022-09-09T22:35:24.939Z,100887.63
2022-09-09T22:37:51.476Z,100885.66
2022-09-09T22:40:18.062Z,100892.25
2022-09-09T22:42:45.414Z,100891.13
2022-09-09T22:45:13.937Z,100893.31
2022-09-09T22:47:43.306Z,100904.84
2022-09-09T22:50:10.466Z,100906.25
2022-09-09T22:52:37.121Z,100913.13
2022-09-09T22:55:04.036Z,100917.22
2022-09-09T22:57:31.138Z,100919.91
2022-09-09T22:59:57.690Z,100921.34
2022-09-09T23:02:24.242Z,100922.22
2022-09-09T23:04:51.409Z,100936.25
2022-09-09T23:07:23.467Z,100935.34
2022-09-09T23:09:50.070Z,100935.88
2022-09-09T23:12:18.911Z,100938.56
2022-09-09T23:14:45.435Z,100936.19
2022-09-09T23:17:18.523Z,100933.63
2022-09-09T23:19:45.629Z,100934.06
2022-09-09T23:22:12.266Z,100933.75
2022-09-09T23:24:39.006Z,100938.91
2022-09-09T23:27:05.543Z,100931.13
2022-09-09T23:29:32.122Z,100933.34
2022-09-09T23:31:58.671Z,100935.69
2022-09-09T23:34:25.294Z,100939.53
2022-09-09T23:36:53.601Z,100927.13
2022-09-09T23:39:20.185Z,100932.03
2022-09-09T23:41:49.448Z,100934.28
2022-09-09T23:44:17.096Z,100923.53
2022-09-09T23:46:43.821Z,100924.56
2022-09-09T23:49:10.674Z,100919.56
2022-09-09T23:51:38.126Z,100916.16
2022-09-09T23:54:06.077Z,100914.53
2022-09-09T23:56:36.027Z,100913.09
2022-09-09T23:59:02.766Z,100914.16
